Time;durP1;ratioP1;P1;durP2;ratioP2;P2;SDS_P1;SDS_P2;PMS_P1;PMS_P2;Temp;Humidity;BMP_temperature;BMP_pressure;BME280_temperature;BME280_humidity;BME280_pressure;Samples;Min_cycle;Max_cycle;Signal;HPM_P1;HPM_P2
2023/01/12 00:01:23;;;;;;;46.38;5.90;;;10.70;99.90;;;;;;4898206;29;20021;-45
2023/01/12 00:03:49;;;;;;;43.78;6.28;;;10.70;99.90;;;;;;4909741;29;20032;-46
2023/01/12 00:06:15;;;;;;;40.45;6.15;;;10.70;99.90;;;;;;4916189;29;20571;-45
2023/01/12 00:08:41;;;;;;;44.65;6.88;;;10.70;99.90;;;;;;4916179;29;20056;-46
2023/01/12 00:11:07;;;;;;;49.63;6.43;;;10.70;99.90;;;;;;4904166;29;20064;-45
2023/01/12 00:13:33;;;;;;;47.03;6.30;;;10.60;99.90;;;;;;4911967;29;20132;-45
2023/01/12 00:18:48;;;;;;;53.30;6.80;;;10.60;99.90;;;;;;4911799;29;20491;-46
2023/01/12 00:21:15;;;;;;;52.88;6.55;;;10.60;99.90;;;;;;4915805;29;20035;-45
2023/01/12 00:23:43;;;;;;;53.55;9.23;;;10.60;99.90;;;;;;4905652;29;20515;-47
2023/01/12 00:26:10;;;;;;;53.43;6.60;;;10.60;99.90;;;;;;4909249;29;20377;-46
2023/01/12 00:28:37;;;;;;;42.17;5.80;;;10.50;99.90;;;;;;4908145;29;20036;-46
2023/01/12 00:31:06;;;;;;;38.25;7.20;;;10.50;99.90;;;;;;4909928;29;20035;-46
2023/01/12 00:33:35;;;;;;;62.40;7.38;;;10.50;99.90;;;;;;4901931;29;20084;-45
2023/01/12 00:36:07;;;;;;;35.80;6.83;;;10.50;99.90;;;;;;4903883;29;20061;-46
2023/01/12 00:38:37;;;;;;;50.33;6.40;;;10.60;99.90;;;;;;4915890;29;20028;-45
2023/01/12 00:41:06;;;;;;;;;;;10.60;99.90;;;;;;4903336;29;20028;-51
2023/01/12 00:46:16;;;;;;;49.88;7.75;;;10.60;99.90;;;;;;4916433;29;20050;-51
2023/01/12 00:48:41;;;;;;;57.90;7.10;;;10.60;99.90;;;;;;4916665;29;20032;-45
2023/01/12 00:51:07;;;;;;;49.50;6.03;;;10.70;99.90;;;;;;4916315;29;20107;-48
2023/01/12 00:53:32;;;;;;;45.95;7.40;;;10.70;99.90;;;;;;4916390;29;20028;-45
2023/01/12 00:56:02;;;;;;;47.83;6.32;;;10.70;99.90;;;;;;4901535;29;20085;-50
2023/01/12 00:58:29;;;;;;;41.33;5.65;;;10.80;99.90;;;;;;4916234;29;20511;-46
2023/01/12 01:01:07;;;;;;;37.42;5.68;;;10.80;99.90;;;;;;4915977;29;20024;-48
2023/01/12 01:03:34;;;;;;;44.08;6.43;;;10.90;99.90;;;;;;4916299;29;20491;-45
2023/01/12 01:06:05;;;;;;;41.22;5.80;;;10.90;99.90;;;;;;4915934;29;20039;-48
2023/01/12 01:08:31;;;;;;;38.55;6.97;;;11.00;99.90;;;;;;4912792;29;20080;-48
2023/01/12 01:11:09;;;;;;;48.42;6.47;;;11.00;99.90;;;;;;4902749;29;20033;-53
2023/01/12 01:13:36;;;;;;;45.22;6.75;;;10.90;99.90;;;;;;4915922;29;20024;-44
2023/01/12 01:16:03;;;;;;;36.80;6.22;;;10.90;99.90;;;;;;4904608;29;20445;-50
2023/01/12 01:18:30;;;;;;;33.22;5.93;;;10.90;99.90;;;;;;4915721;29;20024;-46
2023/01/12 01:20:55;;;;;;;38.85;5.72;;;10.80;99.90;;;;;;4915801;29;20036;-48
2023/01/12 01:23:23;;;;;;;47.50;5.65;;;10.80;99.90;;;;;;4915806;29;20016;-46
2023/01/12 01:25:49;;;;;;;31.63;5.38;;;10.80;99.90;;;;;;4915458;29;20043;-47
2023/01/12 01:28:15;;;;;;;40.13;5.75;;;10.90;99.90;;;;;;4905220;29;20028;-48
2023/01/12 01:30:40;;;;;;;35.13;5.82;;;10.80;99.90;;;;;;4896791;29;20032;-45
2023/01/12 01:33:06;;;;;;;46.55;6.43;;;10.80;99.90;;;;;;4896925;29;20020;-49
2023/01/12 01:35:32;;;;;;;26.85;4.65;;;10.90;99.90;;;;;;4896559;29;20401;-45
2023/01/12 01:37:57;;;;;;;38.28;5.88;;;10.90;99.90;;;;;;4897265;29;20108;-49
2023/01/12 01:40:23;;;;;;;42.72;5.78;;;10.90;99.90;;;;;;4896711;29;20063;-49
2023/01/12 01:42:48;;;;;;;37.55;5.20;;;10.90;99.90;;;;;;4896464;29;20104;-46
2023/01/12 01:45:15;;;;;;;44.60;6.60;;;10.90;99.90;;;;;;4896499;29;20041;-50
2023/01/12 01:48:01;;;;;;;54.28;7.45;;;10.90;99.90;;;;;;4896428;29;20464;-43
2023/01/12 01:50:34;;;;;;;41.65;6.10;;;10.80;99.90;;;;;;4896681;29;20485;-47
2023/01/12 01:53:13;;;;;;;45.53;6.38;;;10.80;99.90;;;;;;4896136;29;20081;-52
2023/01/12 01:55:48;;;;;;;38.47;6.35;;;10.80;99.90;;;;;;4896569;29;20048;-48
2023/01/12 01:58:19;;;;;;;36.10;5.72;;;10.80;99.90;;;;;;4896371;29;20020;-47
2023/01/12 02:00:45;;;;;;;46.80;6.57;;;10.80;99.90;;;;;;4896368;29;20496;-46
2023/01/12 02:03:11;;;;;;;46.03;6.47;;;10.80;99.90;;;;;;4896091;29;20036;-50
2023/01/12 02:05:42;;;;;;;46.58;5.43;;;10.70;99.90;;;;;;4896439;29;20076;-51
2023/01/12 02:08:15;;;;;;;50.70;7.10;;;10.70;99.90;;;;;;4896055;29;20037;-48
2023/01/12 02:10:41;;;;;;;47.40;6.00;;;10.70;99.90;;;;;;4896321;29;20025;-47
2023/01/12 02:19:22;;;;;;;33.53;6.03;;;10.70;99.90;;;;;;4896101;29;20164;-47
2023/01/12 02:22:03;;;;;;;40.08;4.50;;;10.70;99.90;;;;;;4891289;29;20037;-48
2023/01/12 02:24:53;;;;;;;43.72;6.40;;;10.70;99.90;;;;;;4895882;29;20040;-46
2023/01/12 02:27:40;;;;;;;39.72;6.13;;;10.70;99.90;;;;;;4907850;29;20033;-46
2023/01/12 02:30:27;;;;;;;37.78;5.47;;;10.70;99.90;;;;;;4895859;29;20036;-47
2023/01/12 02:33:03;;;;;;;42.22;7.05;;;10.80;99.90;;;;;;4895874;29;20032;-47
2023/01/12 02:35:43;;;;;;;47.17;6.47;;;10.80;99.90;;;;;;4895774;29;20051;-48
2023/01/12 02:38:23;;;;;;;55.22;6.45;;;10.80;99.90;;;;;;4895785;29;20503;-45
2023/01/12 02:40:58;;;;;;;39.95;5.95;;;10.80;99.90;;;;;;4895546;29;20029;-49
2023/01/12 02:43:35;;;;;;;55.67;7.20;;;10.80;99.90;;;;;;4895952;29;20029;-49
2023/01/12 02:46:10;;;;;;;52.20;5.88;;;10.90;99.90;;;;;;4895511;29;20044;-48
2023/01/12 02:48:39;;;;;;;44.90;5.95;;;10.90;99.90;;;;;;4895199;29;20028;-49
2023/01/12 02:51:23;;;;;;;43.70;6.07;;;10.90;99.90;;;;;;4895519;29;20038;-51
2023/01/12 02:53:53;;;;;;;52.22;5.40;;;10.80;99.90;;;;;;4895857;29;20032;-48
2023/01/12 02:56:26;;;;;;;34.70;6.03;;;10.80;99.90;;;;;;4900855;29;20024;-44
2023/01/12 02:58:55;;;;;;;50.17;6.38;;;10.80;99.90;;;;;;4895346;29;20091;-47
2023/01/12 03:01:24;;;;;;;33.92;5.07;;;10.90;99.90;;;;;;4895272;29;20025;-49
2023/01/12 03:03:52;;;;;;;41.67;6.43;;;10.90;99.90;;;;;;4895392;29;20044;-45
2023/01/12 03:06:18;;;;;;;36.78;5.80;;;10.80;99.90;;;;;;4895258;29;20037;-49
2023/01/12 03:08:46;;;;;;;35.13;5.07;;;10.90;99.90;;;;;;4895427;29;20040;-48
2023/01/12 03:11:17;;;;;;;34.35;4.53;;;10.90;99.90;;;;;;4895356;29;20063;-46
2023/01/12 03:13:49;;;;;;;42.78;4.85;;;10.80;99.90;;;;;;4901910;29;20025;-48
2023/01/12 03:16:20;;;;;;;35.53;5.60;;;10.80;99.90;;;;;;4901154;29;20029;-46
2023/01/12 03:18:51;;;;;;;35.97;4.57;;;10.80;99.90;;;;;;4895582;29;20116;-44
2023/01/12 03:21:29;;;;;;;37.72;5.10;;;10.80;99.90;;;;;;4895445;29;20032;-46
2023/01/12 03:24:03;;;;;;;42.83;5.00;;;10.90;99.90;;;;;;4895494;29;20032;-47
2023/01/12 03:26:31;;;;;;;34.38;5.05;;;10.90;99.90;;;;;;4895284;29;20067;-44
2023/01/12 03:29:23;;;;;;;43.90;5.53;;;10.80;99.90;;;;;;4895575;29;20104;-44
2023/01/12 03:31:49;;;;;;;33.88;5.53;;;10.90;99.90;;;;;;4908056;29;20048;-44
2023/01/12 03:34:14;;;;;;;37.58;5.68;;;10.80;99.90;;;;;;4895470;29;20080;-44
2023/01/12 03:36:53;;;;;;;28.27;5.63;;;10.90;99.90;;;;;;4895322;29;20412;-46
2023/01/12 03:39:43;;;;;;;37.45;5.88;;;10.90;99.90;;;;;;4895462;29;20032;-44
2023/01/12 03:42:14;;;;;;;28.83;4.60;;;10.90;99.90;;;;;;4895250;29;20060;-45
2023/01/12 03:44:54;;;;;;;35.00;4.60;;;10.90;99.90;;;;;;4895231;29;20036;-47
2023/01/12 03:47:30;;;;;;;37.03;4.78;;;10.90;99.90;;;;;;4894996;29;20506;-46
2023/01/12 03:50:06;;;;;;;34.88;4.95;;;10.90;99.90;;;;;;4895102;29;20036;-47
2023/01/12 03:52:35;;;;;;;29.05;4.38;;;10.90;99.90;;;;;;4895106;29;20043;-48
2023/01/12 03:55:03;;;;;;;38.00;5.40;;;10.90;99.90;;;;;;4895182;29;20024;-48
2023/01/12 03:57:30;;;;;;;37.15;4.35;;;10.90;99.90;;;;;;4894996;29;20080;-49
2023/01/12 03:59:58;;;;;;;28.23;3.85;;;10.90;99.90;;;;;;4897408;29;20043;-44
2023/01/12 04:02:24;;;;;;;26.55;4.28;;;10.90;99.90;;;;;;4898466;29;20384;-52
2023/01/12 04:04:50;;;;;;;28.15;3.80;;;10.90;99.90;;;;;;4904140;29;20032;-47
2023/01/12 04:07:16;;;;;;;37.97;4.85;;;11.00;99.90;;;;;;4905579;29;20047;-46
2023/01/12 04:09:41;;;;;;;31.48;4.25;;;10.90;99.90;;;;;;4898372;29;20016;-47
2023/01/12 04:12:11;;;;;;;29.10;4.60;;;11.00;99.90;;;;;;4898332;29;20088;-48
2023/01/12 04:14:37;;;;;;;;;;;10.90;99.90;;;;;;4898521;29;20028;-47
2023/01/12 04:17:03;;;;;;;22.35;3.33;;;11.00;99.90;;;;;;4898118;29;20363;-49
2023/01/12 04:19:29;;;;;;;28.98;4.05;;;11.00;99.90;;;;;;4898218;29;20029;-45
2023/01/12 04:24:39;;;;;;;34.15;4.88;;;11.00;99.90;;;;;;4898080;29;20463;-47
2023/01/12 04:27:05;;;;;;;34.28;4.38;;;10.90;99.90;;;;;;4898012;29;20068;-46
2023/01/12 04:29:30;;;;;;;34.03;3.72;;;11.00;99.90;;;;;;4898199;29;20025;-49
2023/01/12 04:31:56;;;;;;;20.98;3.35;;;11.00;99.90;;;;;;4902936;29;20690;-46
2023/01/12 04:34:22;;;;;;;26.85;3.97;;;11.00;99.90;;;;;;4906215;29;20380;-51
2023/01/12 04:36:48;;;;;;;24.30;3.67;;;11.00;99.90;;;;;;4896532;29;20169;-45
2023/01/12 04:39:13;;;;;;;19.92;3.03;;;11.00;99.90;;;;;;4897905;29;20107;-44
2023/01/12 04:41:39;;;;;;;28.52;5.40;;;11.00;99.90;;;;;;4897704;29;20129;-44
2023/01/12 04:44:04;;;;;;;28.00;3.83;;;11.00;99.90;;;;;;4896670;29;20429;-44
2023/01/12 04:46:30;;;;;;;26.50;4.15;;;11.10;99.90;;;;;;4897502;29;20052;-44
2023/01/12 04:48:56;;;;;;;28.02;3.25;;;11.10;99.90;;;;;;4897540;29;20473;-44
2023/01/12 04:51:21;;;;;;;28.45;3.50;;;11.10;99.90;;;;;;4897720;29;20088;-45
2023/01/12 04:53:48;;;;;;;27.65;3.65;;;11.10;99.90;;;;;;4897390;29;20032;-48
2023/01/12 04:56:14;;;;;;;34.17;3.95;;;11.10;99.90;;;;;;4896305;29;20510;-49
2023/01/12 04:58:41;;;;;;;34.25;4.93;;;11.10;99.90;;;;;;4897541;29;20096;-47
2023/01/12 05:01:17;;;;;;;21.38;3.90;;;11.10;99.90;;;;;;4897639;29;20035;-46
2023/01/12 05:03:44;;;;;;;20.10;3.08;;;11.10;99.90;;;;;;4897273;29;20453;-45
2023/01/12 05:06:10;;;;;;;26.85;3.42;;;11.10;99.90;;;;;;4910517;29;20396;-48
2023/01/12 05:11:27;;;;;;;23.42;3.80;;;11.10;99.90;;;;;;4896838;29;20139;-48
2023/01/12 05:13:54;;;;;;;21.35;3.72;;;11.10;99.90;;;;;;4895983;29;20025;-47
2023/01/12 05:16:20;;;;;;;24.27;3.80;;;11.10;99.90;;;;;;4897009;29;20075;-46
2023/01/12 05:18:45;;;;;;;22.00;3.45;;;11.10;99.90;;;;;;4897163;29;20068;-51
2023/01/12 05:21:12;;;;;;;20.15;3.38;;;11.10;99.90;;;;;;4896932;29;20368;-48
2023/01/12 05:23:38;;;;;;;24.73;3.50;;;11.10;99.90;;;;;;4896971;29;20400;-45
2023/01/12 05:26:05;;;;;;;27.92;4.85;;;11.20;99.90;;;;;;4897140;29;20131;-45
2023/01/12 05:28:31;;;;;;;19.38;2.95;;;11.10;99.90;;;;;;4896838;29;20101;-49
2023/01/12 05:31:06;;;;;;;22.75;3.45;;;11.10;99.90;;;;;;4896896;29;20028;-46
2023/01/12 05:33:32;;;;;;;26.13;3.78;;;11.10;99.90;;;;;;4896594;29;20032;-51
2023/01/12 05:35:58;;;;;;;31.95;3.85;;;11.10;99.90;;;;;;4896833;29;20127;-49
2023/01/12 05:38:23;;;;;;;25.35;3.60;;;11.10;99.90;;;;;;4896692;29;20096;-47
2023/01/12 05:40:49;;;;;;;45.85;4.18;;;11.10;99.90;;;;;;4896690;29;20029;-51
2023/01/12 05:46:04;;;;;;;34.08;4.50;;;11.10;99.90;;;;;;4896599;29;20056;-52
2023/01/12 05:48:31;;;;;;;30.33;4.65;;;11.10;99.90;;;;;;4896480;29;20051;-46
2023/01/12 05:51:04;;;;;;;34.80;4.43;;;11.10;99.90;;;;;;4896725;29;20028;-46
2023/01/12 05:53:30;;;;;;;39.13;5.43;;;11.10;99.90;;;;;;4896384;29;20041;-52
2023/01/12 05:55:56;;;;;;;27.02;4.15;;;11.10;99.90;;;;;;4895141;29;20366;-50
2023/01/12 05:58:23;;;;;;;31.05;4.63;;;11.20;99.90;;;;;;4896489;29;20043;-47
2023/01/12 06:00:48;;;;;;;28.25;3.92;;;11.20;99.90;;;;;;4896170;29;20500;-47
2023/01/12 06:03:14;;;;;;;25.95;3.28;;;11.20;99.90;;;;;;4896397;29;20033;-45
2023/01/12 06:05:39;;;;;;;24.83;3.47;;;11.20;99.90;;;;;;4908510;29;20107;-45
2023/01/12 06:08:05;;;;;;;30.95;4.70;;;11.20;99.90;;;;;;4897047;29;20033;-47
2023/01/12 06:10:33;;;;;;;22.52;3.28;;;11.20;99.90;;;;;;4896398;29;20460;-47
2023/01/12 06:15:43;;;;;;;28.10;3.45;;;11.30;99.90;;;;;;4896260;29;20108;-46
2023/01/12 06:18:09;;;;;;;38.13;5.90;;;11.20;99.90;;;;;;4896032;29;20020;-46
2023/01/12 06:20:35;;;;;;;22.35;3.63;;;11.30;99.90;;;;;;4896121;29;20499;-50
2023/01/12 06:23:01;;;;;;;34.70;4.80;;;11.30;99.90;;;;;;4895110;29;20033;-48
2023/01/12 06:25:28;;;;;;;31.15;4.03;;;11.20;99.90;;;;;;4896042;29;20025;-44
2023/01/12 06:27:55;;;;;;;39.28;5.35;;;11.20;99.90;;;;;;4895708;29;20044;-47
2023/01/12 06:30:21;;;;;;;28.88;4.40;;;11.20;99.90;;;;;;4895887;29;20050;-45
2023/01/12 06:32:47;;;;;;;38.53;4.97;;;11.20;99.90;;;;;;4895948;29;20033;-44
2023/01/12 06:35:13;;;;;;;47.97;5.85;;;11.10;99.90;;;;;;4895775;29;20032;-44
2023/01/12 06:37:38;;;;;;;28.88;5.03;;;11.10;99.90;;;;;;4895944;29;20484;-51
2023/01/12 06:40:04;;;;;;;26.77;4.10;;;11.10;99.90;;;;;;4896037;29;20029;-53
2023/01/12 06:42:33;;;;;;;35.25;5.32;;;11.10;99.90;;;;;;4895943;29;20033;-46
2023/01/12 06:45:00;;;;;;;39.03;4.47;;;11.10;99.90;;;;;;4895481;29;20021;-45
2023/01/12 06:47:27;;;;;;;31.52;5.13;;;11.10;99.90;;;;;;4895639;29;20084;-47
2023/01/12 06:49:53;;;;;;;41.78;6.00;;;11.10;99.90;;;;;;4895717;29;20035;-49
2023/01/12 06:52:24;;;;;;;38.97;4.82;;;11.10;99.90;;;;;;4895658;29;20099;-50
2023/01/12 06:54:50;;;;;;;31.48;4.18;;;11.10;99.90;;;;;;4895559;29;20085;-45
2023/01/12 06:57:16;;;;;;;38.65;5.38;;;11.10;99.90;;;;;;4895495;29;20085;-48
2023/01/12 06:59:41;;;;;;;26.55;3.40;;;11.10;99.90;;;;;;4895538;29;20430;-45
2023/01/12 07:02:12;;;;;;;26.55;3.65;;;11.10;99.90;;;;;;4895330;29;20036;-45
2023/01/12 07:04:38;;;;;;;33.15;4.93;;;11.10;99.90;;;;;;4899545;29;20024;-44
2023/01/12 07:07:04;;;;;;;24.40;4.50;;;11.10;99.90;;;;;;4904435;29;20047;-53
2023/01/12 07:09:30;;;;;;;27.38;3.65;;;11.10;99.90;;;;;;4895386;29;20036;-45
2023/01/12 07:11:55;;;;;;;32.22;4.38;;;11.10;99.90;;;;;;4895495;29;20036;-48
2023/01/12 07:14:21;;;;;;;35.42;4.45;;;11.10;99.90;;;;;;4895348;29;20378;-47
2023/01/12 07:16:46;;;;;;;32.35;4.28;;;11.00;99.90;;;;;;4895489;29;20033;-49
2023/01/12 07:19:12;;;;;;;32.97;5.13;;;11.00;99.90;;;;;;4895446;29;20025;-49
2023/01/12 07:21:38;;;;;;;35.65;5.32;;;11.00;99.90;;;;;;4895291;29;20040;-44
2023/01/12 07:24:03;;;;;;;33.60;5.03;;;11.00;99.90;;;;;;4895533;29;20036;-50
2023/01/12 07:26:29;;;;;;;34.88;5.93;;;11.00;99.90;;;;;;4895093;29;20398;-44
2023/01/12 07:28:55;;;;;;;34.05;5.05;;;11.00;99.90;;;;;;4894155;29;20120;-49
2023/01/12 07:31:20;;;;;;;29.33;4.35;;;11.00;99.90;;;;;;4895185;29;20040;-50
2023/01/12 07:33:46;;;;;;;23.30;3.78;;;11.00;99.90;;;;;;4896364;29;20028;-47
2023/01/12 07:36:12;;;;;;;34.60;5.35;;;11.00;99.90;;;;;;4899050;29;20024;-48
2023/01/12 07:38:37;;;;;;;27.65;4.32;;;11.00;99.90;;;;;;4898910;29;20391;-46
2023/01/12 07:41:03;;;;;;;27.67;3.78;;;10.90;99.90;;;;;;4898835;29;20088;-47
2023/01/12 07:43:32;;;;;;;29.85;4.75;;;11.00;99.90;;;;;;4898838;29;20032;-45
2023/01/12 07:45:58;;;;;;;33.28;3.97;;;11.00;99.90;;;;;;4898754;29;20088;-49
2023/01/12 07:48:25;;;;;;;28.58;3.63;;;11.00;99.90;;;;;;4898608;29;20497;-48
2023/01/12 07:50:51;;;;;;;24.02;3.70;;;11.00;99.90;;;;;;4898790;29;20036;-51
2023/01/12 07:53:17;;;;;;;31.58;5.88;;;11.00;99.90;;;;;;4898847;29;20098;-48
2023/01/12 07:55:43;;;;;;;33.03;4.65;;;10.90;99.90;;;;;;4898588;29;20109;-46
2023/01/12 07:58:09;;;;;;;36.53;4.32;;;10.90;99.90;;;;;;4898782;29;20135;-51
2023/01/12 08:00:35;;;;;;;38.25;4.78;;;10.90;99.90;;;;;;4910138;29;20097;-47
2023/01/12 08:03:07;;;;;;;26.83;3.90;;;10.90;99.90;;;;;;4917050;29;20382;-48
2023/01/12 08:05:33;;;;;;;31.10;4.75;;;10.90;99.90;;;;;;4917259;29;20076;-46
2023/01/12 08:07:59;;;;;;;30.23;4.93;;;10.90;99.90;;;;;;4899868;29;20108;-48
2023/01/12 08:10:25;;;;;;;29.63;4.18;;;10.90;99.90;;;;;;4901086;29;20028;-51
2023/01/12 08:12:51;;;;;;;29.15;3.40;;;10.90;99.90;;;;;;4909306;29;20095;-50
2023/01/12 08:15:17;;;;;;;23.20;4.40;;;10.90;99.90;;;;;;4904189;29;20028;-54
2023/01/12 08:17:49;;;;;;;31.77;4.32;;;11.00;99.90;;;;;;4912269;29;20051;-46
2023/01/12 08:20:22;;;;;;;21.70;4.20;;;11.00;99.90;;;;;;4910214;29;20032;-50
2023/01/12 08:22:52;;;;;;;28.20;4.85;;;11.00;99.90;;;;;;4910216;29;20339;-48
2023/01/12 08:25:20;;;;;;;;;;;10.90;99.90;;;;;;4914852;29;20013;-48
2023/01/12 08:27:49;;;;;;;27.58;3.35;;;10.90;99.90;;;;;;4915430;29;20009;-46
2023/01/12 08:30:18;;;;;;;24.38;3.83;;;10.90;99.90;;;;;;4905599;29;20207;-47
2023/01/12 08:32:43;;;;;;;27.08;3.88;;;10.90;99.90;;;;;;4904515;29;20040;-45
2023/01/12 08:35:13;;;;;;;26.95;3.30;;;10.90;99.90;;;;;;4905088;29;20039;-45
2023/01/12 08:37:38;;;;;;;16.63;2.67;;;10.90;99.90;;;;;;4916713;29;20031;-46
2023/01/12 08:40:05;;;;;;;31.73;4.18;;;10.90;99.90;;;;;;4902677;29;20048;-46
2023/01/12 08:42:31;;;;;;;29.83;3.92;;;10.90;99.90;;;;;;4906691;29;20556;-48
2023/01/12 08:44:57;;;;;;;24.60;3.97;;;10.90;99.90;;;;;;4913546;29;20036;-46
2023/01/12 08:47:29;;;;;;;22.75;3.53;;;11.00;99.90;;;;;;4909671;29;20092;-48
2023/01/12 08:49:55;;;;;;;28.35;2.97;;;11.00;99.90;;;;;;4913174;29;20395;-48
2023/01/12 08:52:22;;;;;;;23.60;3.20;;;10.90;99.90;;;;;;4912242;29;20060;-49
2023/01/12 08:54:48;;;;;;;37.47;3.75;;;11.00;99.90;;;;;;4908551;29;20046;-48
2023/01/12 08:57:15;;;;;;;25.52;3.65;;;11.00;99.90;;;;;;4916074;29;20036;-46
2023/01/12 08:59:41;;;;;;;28.65;3.80;;;11.00;99.90;;;;;;4905255;29;20025;-49
2023/01/12 09:02:09;;;;;;;30.55;3.85;;;11.00;99.90;;;;;;4906032;29;20028;-47
2023/01/12 09:04:38;;;;;;;32.42;4.45;;;11.00;99.90;;;;;;4905825;29;20523;-53
2023/01/12 09:07:04;;;;;;;36.55;4.32;;;11.00;99.90;;;;;;4906325;29;20072;-48
2023/01/12 09:09:29;;;;;;;36.75;4.78;;;11.00;99.90;;;;;;4897362;29;20067;-49
2023/01/12 09:11:55;;;;;;;32.22;4.70;;;11.00;99.90;;;;;;4897237;29;20120;-45
2023/01/12 09:14:21;;;;;;;27.67;3.58;;;11.00;99.90;;;;;;4897218;29;20095;-47
2023/01/12 09:16:47;;;;;;;23.95;3.30;;;11.00;99.90;;;;;;4897638;29;20048;-45
2023/01/12 09:19:12;;;;;;;28.80;4.32;;;11.00;99.90;;;;;;4907905;29;20024;-46
2023/01/12 09:21:40;;;;;;;21.63;3.05;;;11.00;99.90;;;;;;4902449;29;20403;-46
2023/01/12 09:24:07;;;;;;;24.00;2.85;;;11.00;99.90;;;;;;4898191;29;20020;-45
2023/01/12 09:26:38;;;;;;;21.50;3.33;;;11.00;99.90;;;;;;4903814;29;20407;-48
2023/01/12 09:29:04;;;;;;;20.70;2.38;;;11.00;99.90;;;;;;4909658;29;20063;-45
2023/01/12 09:31:31;;;;;;;18.88;3.63;;;11.00;99.90;;;;;;4910841;29;20136;-52
2023/01/12 09:33:57;;;;;;;28.92;4.38;;;11.10;99.90;;;;;;4900328;29;20031;-45
2023/01/12 09:36:29;;;;;;;24.52;3.97;;;11.10;99.90;;;;;;4903568;29;20068;-45
2023/01/12 09:38:55;;;;;;;22.20;3.58;;;11.10;99.90;;;;;;4912748;29;20028;-45
2023/01/12 09:47:38;;;;;;;32.20;5.18;;;11.00;99.90;;;;;;4899431;29;20155;-46
2023/01/12 09:50:12;;;;;;;25.67;4.65;;;11.10;99.90;;;;;;4908403;29;20084;-44
2023/01/12 09:52:58;;;;;;;25.67;4.25;;;11.00;99.90;;;;;;4906608;29;20037;-44
2023/01/12 09:55:50;;;;;;;23.60;3.75;;;11.00;99.90;;;;;;4898585;29;20332;-44
2023/01/12 09:58:44;;;;;;;25.52;3.35;;;11.10;99.90;;;;;;4901980;29;20475;-44
2023/01/12 10:01:14;;;;;;;27.92;3.75;;;11.10;99.90;;;;;;4911572;29;20020;-44
2023/01/12 10:03:41;;;;;;;24.55;4.45;;;11.10;99.90;;;;;;4914150;29;20329;-44
2023/01/12 10:06:16;;;;;;;18.80;3.13;;;11.00;99.90;;;;;;4910263;29;20187;-44
2023/01/12 10:08:52;;;;;;;21.92;2.95;;;11.10;99.90;;;;;;4895915;29;20097;-43
2023/01/12 10:11:38;;;;;;;13.13;2.88;;;11.10;99.90;;;;;;4896330;29;20021;-43
2023/01/12 10:14:13;;;;;;;18.15;2.97;;;11.10;99.90;;;;;;4893048;29;20389;-44
2023/01/12 10:17:12;;;;;;;17.77;2.58;;;11.10;99.90;;;;;;4907227;29;20032;-44
2023/01/12 10:19:54;;;;;;;14.35;2.78;;;11.10;99.90;;;;;;4894269;29;20033;-44
2023/01/12 10:22:37;;;;;;;17.30;4.05;;;11.10;99.90;;;;;;4907459;29;20100;-43
2023/01/12 10:25:25;;;;;;;15.95;3.08;;;11.10;99.90;;;;;;4906247;29;20020;-44
2023/01/12 10:27:56;;;;;;;11.70;2.35;;;11.10;99.90;;;;;;4899370;29;20032;-43
2023/01/12 10:30:32;;;;;;;8.73;2.00;;;11.20;99.90;;;;;;4907859;29;20050;-43
2023/01/12 10:33:19;;;;;;;11.30;2.10;;;11.10;99.90;;;;;;4905850;29;20036;-46
2023/01/12 10:36:01;;;;;;;13.25;2.47;;;11.10;99.90;;;;;;4904450;29;20215;-44
2023/01/12 10:38:32;;;;;;;11.95;2.75;;;11.10;99.90;;;;;;4901479;29;20060;-44
2023/01/12 10:41:03;;;;;;;18.77;2.30;;;11.10;99.90;;;;;;4905831;29;20013;-46
2023/01/12 10:43:32;;;;;;;16.48;2.30;;;11.10;99.90;;;;;;4897483;29;20044;-45
2023/01/12 10:46:21;;;;;;;14.80;2.17;;;11.10;99.90;;;;;;4903729;29;20044;-45
2023/01/12 10:48:49;;;;;;;18.55;2.38;;;11.10;99.90;;;;;;4908076;29;20554;-49
2023/01/12 10:51:20;;;;;;;17.90;2.92;;;11.10;99.90;;;;;;4911054;29;20023;-44
2023/01/12 10:54:09;;;;;;;14.00;2.22;;;11.10;99.90;;;;;;4906220;29;20039;-46
2023/01/12 10:56:38;;;;;;;20.93;3.20;;;11.10;99.90;;;;;;4899769;29;20072;-45
2023/01/12 10:59:18;;;;;;;17.45;2.30;;;11.10;99.90;;;;;;4904011;29;20120;-46
2023/01/12 11:02:07;;;;;;;25.77;3.05;;;11.10;99.90;;;;;;4902126;29;20118;-45
2023/01/12 11:04:58;;;;;;;18.17;3.17;;;11.10;99.90;;;;;;4901487;29;20480;-46
2023/01/12 11:07:27;;;;;;;15.23;2.35;;;11.20;99.90;;;;;;4907975;29;20135;-45
2023/01/12 11:09:56;;;;;;;17.02;2.97;;;11.20;99.90;;;;;;4915501;29;20690;-49
2023/01/12 11:12:34;;;;;;;16.08;2.28;;;11.10;99.90;;;;;;4916223;29;20369;-44
2023/01/12 11:15:08;;;;;;;18.45;2.85;;;11.20;99.90;;;;;;4915095;29;20171;-45
2023/01/12 11:18:11;;;;;;;17.83;2.90;;;11.10;99.90;;;;;;4912079;29;20467;-44
2023/01/12 11:20:42;;;;;;;15.65;2.25;;;11.10;99.90;;;;;;4906816;29;20084;-47
2023/01/12 11:23:15;;;;;;;15.35;2.15;;;11.10;99.90;;;;;;4915852;29;20135;-48
2023/01/12 11:25:44;;;;;;;16.33;2.92;;;11.10;99.90;;;;;;4908050;29;20032;-50
2023/01/12 11:28:36;;;;;;;15.32;2.40;;;11.10;99.90;;;;;;4917520;29;20051;-48
2023/01/12 11:31:21;;;;;;;13.23;1.90;;;11.10;99.90;;;;;;4909763;29;20384;-45
2023/01/12 11:33:58;;;;;;;15.77;2.10;;;11.20;99.90;;;;;;4911116;29;20037;-45
2023/01/12 11:36:38;;;;;;;13.70;2.33;;;11.10;99.90;;;;;;4913186;29;20036;-50
2023/01/12 11:39:12;;;;;;;17.90;2.95;;;11.20;99.90;;;;;;4914133;29;20020;-43
2023/01/12 11:43:47;;;;;;;14.90;2.45;;;11.20;99.90;;;;;;4912805;29;20032;-46
2023/01/12 11:44:44;;;;;;;8.75;2.08;;;11.20;99.90;;;;;;4910611;29;20065;-45
2023/01/12 11:47:14;;;;;;;16.48;2.30;;;11.20;99.90;;;;;;4909904;29;20052;-52
2023/01/12 11:49:58;;;;;;;13.52;2.20;;;11.20;99.90;;;;;;4913657;29;20036;-50
2023/01/12 11:52:26;;;;;;;12.88;2.25;;;11.20;99.90;;;;;;4907484;29;20088;-50
2023/01/12 11:54:52;;;;;;;16.52;2.80;;;11.20;99.90;;;;;;4912517;29;20064;-48
2023/01/12 11:57:44;;;;;;;14.82;2.00;;;11.20;99.90;;;;;;4914783;29;20159;-51
2023/01/12 12:00:13;;;;;;;8.82;1.13;;;11.20;99.90;;;;;;4915791;29;20114;-53
2023/01/12 12:02:50;;;;;;;14.32;2.38;;;11.30;99.90;;;;;;4916025;29;20087;-47
2023/01/12 12:05:25;;;;;;;9.35;2.00;;;11.20;99.90;;;;;;4906376;29;20373;-55
2023/01/12 12:08:02;;;;;;;12.43;2.25;;;11.20;99.90;;;;;;4906133;29;20499;-49
2023/01/12 12:10:53;;;;;;;8.75;1.90;;;11.20;99.90;;;;;;4916926;29;20429;-50
2023/01/12 12:13:40;;;;;;;9.75;2.38;;;11.30;99.90;;;;;;4905928;29;20027;-46
2023/01/12 12:16:26;;;;;;;5.35;1.20;;;11.30;99.90;;;;;;4903090;29;20043;-44
2023/01/12 12:19:32;;;;;;;12.00;1.75;;;11.30;99.90;;;;;;4901677;29;20116;-51
2023/01/12 12:22:23;;;;;;;12.95;2.17;;;11.30;99.90;;;;;;4903221;29;20028;-44
2023/01/12 12:25:13;;;;;;;12.45;2.90;;;11.20;99.90;;;;;;4906369;29;20448;-43
2023/01/12 12:28:11;;;;;;;15.30;2.67;;;11.30;99.90;;;;;;4900602;29;20044;-45
2023/01/12 12:31:15;;;;;;;12.02;2.30;;;11.30;99.90;;;;;;4907307;29;20047;-43
2023/01/12 12:34:12;;;;;;;16.27;2.38;;;11.30;99.90;;;;;;4910964;29;20036;-46
2023/01/12 12:37:08;;;;;;;19.00;3.20;;;11.30;99.90;;;;;;4906777;29;20111;-47
2023/01/12 12:39:58;;;;;;;22.92;2.80;;;11.30;99.90;;;;;;4908713;29;20093;-46
2023/01/12 12:45:48;;;;;;;20.42;3.67;;;11.40;99.90;;;;;;4914710;29;20095;-42
2023/01/12 12:48:25;;;;;;;28.80;4.97;;;11.30;99.90;;;;;;4914883;29;20047;-42
2023/01/12 12:51:06;;;;;;;28.50;5.70;;;11.40;99.90;;;;;;4906623;29;20035;-43
2023/01/12 12:53:37;;;;;;;21.58;3.67;;;11.40;99.90;;;;;;4912730;29;20087;-50
2023/01/12 12:56:06;;;;;;;20.77;3.33;;;11.40;99.90;;;;;;4908182;29;20032;-47
2023/01/12 12:58:41;;;;;;;25.17;3.78;;;11.40;99.90;;;;;;4906328;29;20067;-46
2023/01/12 13:01:19;;;;;;;21.58;3.67;;;11.40;99.90;;;;;;4903153;29;20033;-52
2023/01/12 13:03:47;;;;;;;29.75;4.72;;;11.40;99.90;;;;;;4908462;29;20021;-46
2023/01/12 13:06:28;;;;;;;22.63;2.95;;;11.40;99.90;;;;;;4907700;29;20060;-42
2023/01/12 13:08:59;;;;;;;20.73;3.38;;;11.40;99.90;;;;;;4900033;29;20027;-42
2023/01/12 13:11:52;;;;;;;22.55;4.43;;;11.40;99.90;;;;;;4899518;29;20032;-42
2023/01/12 13:14:30;;;;;;;23.30;3.22;;;11.30;99.90;;;;;;4913413;29;20024;-43
2023/01/12 13:17:25;;;;;;;22.70;4.18;;;11.30;99.90;;;;;;4904253;29;20041;-44
2023/01/12 13:20:00;;;;;;;23.75;4.03;;;11.30;99.90;;;;;;4898485;29;20545;-46
2023/01/12 13:22:46;;;;;;;24.27;4.07;;;11.30;99.90;;;;;;4909956;29;20036;-52
2023/01/12 13:25:22;;;;;;;31.83;3.92;;;11.30;99.90;;;;;;4911337;29;20016;-52
2023/01/12 13:27:59;;;;;;;29.88;4.20;;;11.30;99.90;;;;;;4911664;29;20142;-47
2023/01/12 13:30:27;;;;;;;26.83;5.18;;;11.30;99.90;;;;;;4912016;29;20024;-50
2023/01/12 13:33:20;;;;;;;27.38;3.83;;;11.30;99.90;;;;;;4904349;29;20115;-47